sensor_id;sensor_type;location;lat;lon;timestamp;pressure;altitude;pressure_sealevel;temperature;humidity
2339;BME280;1180;51.438;6.978;2023-06-10T00:01:08;100121.38;;;25.10;51.39
2339;BME280;1180;51.438;6.978;2023-06-10T00:03:36;100128.25;;;25.11;51.82
2339;BME280;1180;51.438;6.978;2023-06-10T00:06:02;100125.25;;;25.14;51.48
2339;BME280;1180;51.438;6.978;2023-06-10T00:08:27;100127.84;;;25.07;52.02
2339;BME280;1180;51.438;6.978;2023-06-10T00:10:56;100127.56;;;25.02;51.90
2339;BME280;1180;51.438;6.978;2023-06-10T00:13:22;100132.59;;;24.97;52.23
2339;BME280;1180;51.438;6.978;2023-06-10T00:15:48;100125.47;;;24.91;52.05
2339;BME280;1180;51.438;6.978;2023-06-10T00:18:13;100128.69;;;24.86;53.05
2339;BME280;1180;51.438;6.978;2023-06-10T00:20:41;100122.00;;;24.69;53.33
2339;BME280;1180;51.438;6.978;2023-06-10T00:23:07;100117.16;;;24.65;53.05
2339;BME280;1180;51.438;6.978;2023-06-10T00:25:34;100116.38;;;24.72;53.19
2339;BME280;1180;51.438;6.978;2023-06-10T00:27:59;100117.88;;;24.74;52.81
2339;BME280;1180;51.438;6.978;2023-06-10T00:30:25;100114.59;;;24.72;53.28
2339;BME280;1180;51.438;6.978;2023-06-10T00:32:51;100115.88;;;24.76;53.12
2339;BME280;1180;51.438;6.978;2023-06-10T00:35:17;100117.28;;;24.79;53.22
2339;BME280;1180;51.438;6.978;2023-06-10T00:37:43;100127.50;;;24.74;53.49
2339;BME280;1180;51.438;6.978;2023-06-10T00:40:09;100120.44;;;24.52;53.68
2339;BME280;1180;51.438;6.978;2023-06-10T00:42:35;100125.31;;;24.56;54.08
2339;BME280;1180;51.438;6.978;2023-06-10T00:45:01;100123.69;;;24.55;54.01
2339;BME280;1180;51.438;6.978;2023-06-10T00:47:27;100122.63;;;24.49;54.27
2339;BME280;1180;51.438;6.978;2023-06-10T00:49:54;100127.88;;;24.49;54.49
2339;BME280;1180;51.438;6.978;2023-06-10T00:52:21;100127.44;;;24.45;54.66
2339;BME280;1180;51.438;6.978;2023-06-10T00:54:47;100133.34;;;24.32;54.55
2339;BME280;1180;51.438;6.978;2023-06-10T00:57:13;100132.56;;;24.02;55.64
2339;BME280;1180;51.438;6.978;2023-06-10T00:59:41;100135.38;;;24.00;56.22
2339;BME280;1180;51.438;6.978;2023-06-10T01:02:09;100134.53;;;23.85;56.32
2339;BME280;1180;51.438;6.978;2023-06-10T01:04:34;100134.38;;;23.56;57.51
2339;BME280;1180;51.438;6.978;2023-06-10T01:10:33;100134.66;;;24.06;57.19
2339;BME280;1180;51.438;6.978;2023-06-10T01:13:05;100146.34;;;24.04;57.42
2339;BME280;1180;51.438;6.978;2023-06-10T01:15:34;100140.00;;;24.13;57.36
2339;BME280;1180;51.438;6.978;2023-06-10T01:18:02;100130.94;;;24.16;57.02
2339;BME280;1180;51.438;6.978;2023-06-10T01:20:29;100143.03;;;24.17;57.41
2339;BME280;1180;51.438;6.978;2023-06-10T01:22:57;100138.78;;;24.16;57.72
2339;BME280;1180;51.438;6.978;2023-06-10T01:25:24;100141.53;;;24.07;57.98
2339;BME280;1180;51.438;6.978;2023-06-10T01:28:19;100147.22;;;23.96;58.29
2339;BME280;1180;51.438;6.978;2023-06-10T01:31:03;100145.84;;;24.00;58.25
2339;BME280;1180;51.438;6.978;2023-06-10T01:33:40;100138.28;;;24.05;58.02
2339;BME280;1180;51.438;6.978;2023-06-10T01:36:07;100146.38;;;23.95;58.78
2339;BME280;1180;51.438;6.978;2023-06-10T01:38:42;100140.88;;;23.90;58.96
2339;BME280;1180;51.438;6.978;2023-06-10T01:41:10;100140.78;;;23.84;59.23
2339;BME280;1180;51.438;6.978;2023-06-10T01:43:39;100137.53;;;23.82;59.25
2339;BME280;1180;51.438;6.978;2023-06-10T01:46:05;100143.97;;;23.79;59.06
2339;BME280;1180;51.438;6.978;2023-06-10T01:48:32;100146.38;;;23.80;59.40
2339;BME280;1180;51.438;6.978;2023-06-10T01:50:58;100145.72;;;23.48;60.56
2339;BME280;1180;51.438;6.978;2023-06-10T01:53:24;100139.72;;;23.63;59.75
2339;BME280;1180;51.438;6.978;2023-06-10T01:55:51;100135.38;;;23.70;59.70
2339;BME280;1180;51.438;6.978;2023-06-10T01:58:16;100150.25;;;23.70;59.70
2339;BME280;1180;51.438;6.978;2023-06-10T02:00:42;100144.06;;;23.71;59.86
2339;BME280;1180;51.438;6.978;2023-06-10T02:03:08;100150.81;;;23.65;59.97
2339;BME280;1180;51.438;6.978;2023-06-10T02:05:34;100143.69;;;23.59;60.45
2339;BME280;1180;51.438;6.978;2023-06-10T02:07:59;100146.28;;;23.44;60.90
2339;BME280;1180;51.438;6.978;2023-06-10T02:10:26;100144.81;;;23.41;61.53
2339;BME280;1180;51.438;6.978;2023-06-10T02:12:51;100141.94;;;23.36;61.63
2339;BME280;1180;51.438;6.978;2023-06-10T02:15:17;100152.53;;;23.43;61.54
2339;BME280;1180;51.438;6.978;2023-06-10T02:17:43;100143.72;;;23.35;61.56
2339;BME280;1180;51.438;6.978;2023-06-10T02:20:10;100149.44;;;23.39;61.65
2339;BME280;1180;51.438;6.978;2023-06-10T02:22:37;100149.53;;;23.46;61.37
2339;BME280;1180;51.438;6.978;2023-06-10T02:25:03;100157.66;;;23.36;61.84
2339;BME280;1180;51.438;6.978;2023-06-10T02:27:30;100155.91;;;23.28;61.93
2339;BME280;1180;51.438;6.978;2023-06-10T02:29:57;100150.34;;;23.23;61.91
2339;BME280;1180;51.438;6.978;2023-06-10T02:32:23;100151.72;;;23.19;62.38
2339;BME280;1180;51.438;6.978;2023-06-10T02:34:48;100158.22;;;23.23;62.40
2339;BME280;1180;51.438;6.978;2023-06-10T02:37:18;100150.72;;;23.20;62.37
2339;BME280;1180;51.438;6.978;2023-06-10T02:39:43;100151.66;;;23.27;62.41
2339;BME280;1180;51.438;6.978;2023-06-10T02:42:09;100146.94;;;23.22;62.46
2339;BME280;1180;51.438;6.978;2023-06-10T02:44:36;100146.81;;;23.16;62.64
2339;BME280;1180;51.438;6.978;2023-06-10T02:47:01;100154.03;;;23.14;62.84
2339;BME280;1180;51.438;6.978;2023-06-10T02:49:27;100144.44;;;23.06;62.67
2339;BME280;1180;51.438;6.978;2023-06-10T02:51:53;100146.66;;;22.94;63.28
2339;BME280;1180;51.438;6.978;2023-06-10T02:54:20;100149.56;;;22.99;63.22
2339;BME280;1180;51.438;6.978;2023-06-10T02:56:46;100147.00;;;22.91;63.62
2339;BME280;1180;51.438;6.978;2023-06-10T02:59:19;100149.13;;;22.96;63.85
2339;BME280;1180;51.438;6.978;2023-06-10T03:01:46;100150.91;;;22.95;63.55
2339;BME280;1180;51.438;6.978;2023-06-10T03:04:11;100148.28;;;22.95;63.42
2339;BME280;1180;51.438;6.978;2023-06-10T03:06:39;100146.56;;;22.87;63.75
2339;BME280;1180;51.438;6.978;2023-06-10T03:09:06;100148.22;;;22.80;64.62
2339;BME280;1180;51.438;6.978;2023-06-10T03:11:35;100141.66;;;22.84;64.35
2339;BME280;1180;51.438;6.978;2023-06-10T03:14:00;100143.97;;;22.79;64.28
2339;BME280;1180;51.438;6.978;2023-06-10T03:16:26;100144.69;;;22.73;64.52
2339;BME280;1180;51.438;6.978;2023-06-10T03:18:53;100147.16;;;22.66;65.14
2339;BME280;1180;51.438;6.978;2023-06-10T03:21:19;100149.69;;;22.59;65.49
2339;BME280;1180;51.438;6.978;2023-06-10T03:23:45;100148.16;;;22.65;65.20
2339;BME280;1180;51.438;6.978;2023-06-10T03:26:11;100157.59;;;22.74;64.96
2339;BME280;1180;51.438;6.978;2023-06-10T03:28:40;100152.72;;;22.71;65.40
2339;BME280;1180;51.438;6.978;2023-06-10T03:31:06;100149.41;;;22.46;65.99
2339;BME280;1180;51.438;6.978;2023-06-10T03:33:32;100156.94;;;22.41;67.02
2339;BME280;1180;51.438;6.978;2023-06-10T03:35:58;100155.91;;;22.50;67.09
2339;BME280;1180;51.438;6.978;2023-06-10T03:38:24;100153.94;;;22.52;66.93
2339;BME280;1180;51.438;6.978;2023-06-10T03:40:49;100163.41;;;22.53;66.15
2339;BME280;1180;51.438;6.978;2023-06-10T03:43:15;100157.19;;;22.62;66.28
2339;BME280;1180;51.438;6.978;2023-06-10T03:45:41;100161.72;;;22.69;66.18
2339;BME280;1180;51.438;6.978;2023-06-10T03:48:07;100163.19;;;22.71;65.75
2339;BME280;1180;51.438;6.978;2023-06-10T03:50:34;100163.00;;;22.73;65.75
2339;BME280;1180;51.438;6.978;2023-06-10T03:53:00;100164.13;;;22.78;65.75
2339;BME280;1180;51.438;6.978;2023-06-10T03:55:26;100168.22;;;22.73;66.04
2339;BME280;1180;51.438;6.978;2023-06-10T03:57:53;100166.25;;;22.75;65.97
2339;BME280;1180;51.438;6.978;2023-06-10T04:00:19;100166.72;;;22.78;66.01
2339;BME280;1180;51.438;6.978;2023-06-10T04:02:46;100158.06;;;22.78;66.21
2339;BME280;1180;51.438;6.978;2023-06-10T04:05:13;100165.47;;;22.66;66.19
2339;BME280;1180;51.438;6.978;2023-06-10T04:07:39;100168.06;;;22.34;67.30
2339;BME280;1180;51.438;6.978;2023-06-10T04:10:10;100171.00;;;22.40;67.92
2339;BME280;1180;51.438;6.978;2023-06-10T04:12:37;100174.72;;;22.54;67.13
2339;BME280;1180;51.438;6.978;2023-06-10T04:15:03;100176.50;;;22.53;67.58
2339;BME280;1180;51.438;6.978;2023-06-10T04:17:29;100173.13;;;22.36;68.51
2339;BME280;1180;51.438;6.978;2023-06-10T04:19:56;100175.69;;;22.53;67.95
2339;BME280;1180;51.438;6.978;2023-06-10T04:22:21;100178.47;;;22.51;68.68
2339;BME280;1180;51.438;6.978;2023-06-10T04:24:48;100178.81;;;22.48;68.34
2339;BME280;1180;51.438;6.978;2023-06-10T04:27:14;100184.75;;;22.33;69.28
2339;BME280;1180;51.438;6.978;2023-06-10T04:29:39;100186.88;;;22.38;69.35
2339;BME280;1180;51.438;6.978;2023-06-10T04:32:06;100187.66;;;22.47;68.75
2339;BME280;1180;51.438;6.978;2023-06-10T04:34:36;100185.09;;;22.30;69.77
2339;BME280;1180;51.438;6.978;2023-06-10T04:37:02;100180.47;;;22.41;69.36
2339;BME280;1180;51.438;6.978;2023-06-10T04:39:28;100184.41;;;22.36;68.53
2339;BME280;1180;51.438;6.978;2023-06-10T04:41:53;100184.34;;;22.45;69.21
2339;BME280;1180;51.438;6.978;2023-06-10T04:44:20;100189.28;;;22.48;68.86
2339;BME280;1180;51.438;6.978;2023-06-10T04:46:46;100196.75;;;22.59;68.80
2339;BME280;1180;51.438;6.978;2023-06-10T04:49:13;100192.53;;;22.50;68.52
2339;BME280;1180;51.438;6.978;2023-06-10T04:51:41;100188.94;;;22.51;69.18
2339;BME280;1180;51.438;6.978;2023-06-10T04:54:07;100188.72;;;22.61;68.46
2339;BME280;1180;51.438;6.978;2023-06-10T04:56:33;100188.28;;;22.49;68.66
2339;BME280;1180;51.438;6.978;2023-06-10T04:58:59;100186.34;;;22.43;67.32
2339;BME280;1180;51.438;6.978;2023-06-10T05:01:25;100192.31;;;22.60;67.31
2339;BME280;1180;51.438;6.978;2023-06-10T05:03:51;100196.53;;;22.69;65.69
2339;BME280;1180;51.438;6.978;2023-06-10T05:06:17;100184.09;;;22.71;66.09
2339;BME280;1180;51.438;6.978;2023-06-10T05:08:43;100189.16;;;22.73;65.98
2339;BME280;1180;51.438;6.978;2023-06-10T05:11:09;100189.44;;;22.78;66.12
2339;BME280;1180;51.438;6.978;2023-06-10T05:13:35;100188.38;;;22.64;65.41
2339;BME280;1180;51.438;6.978;2023-06-10T05:16:01;100189.63;;;22.76;64.92
2339;BME280;1180;51.438;6.978;2023-06-10T05:18:26;100191.13;;;22.94;64.65
2339;BME280;1180;51.438;6.978;2023-06-10T05:20:52;100186.91;;;22.93;64.32
2339;BME280;1180;51.438;6.978;2023-06-10T05:23:19;100193.25;;;22.99;63.45
2339;BME280;1180;51.438;6.978;2023-06-10T05:25:45;100192.59;;;22.97;64.27
2339;BME280;1180;51.438;6.978;2023-06-10T05:28:11;100194.09;;;23.14;64.09
2339;BME280;1180;51.438;6.978;2023-06-10T05:30:37;100195.38;;;23.27;63.29
2339;BME280;1180;51.438;6.978;2023-06-10T05:33:04;100184.91;;;23.18;63.71
2339;BME280;1180;51.438;6.978;2023-06-10T05:35:30;100194.47;;;23.11;63.30
2339;BME280;1180;51.438;6.978;2023-06-10T05:40:22;100203.16;;;23.35;62.94
2339;BME280;1180;51.438;6.978;2023-06-10T05:42:47;100198.91;;;23.34;61.40
2339;BME280;1180;51.438;6.978;2023-06-10T05:45:14;100191.69;;;23.36;62.78
2339;BME280;1180;51.438;6.978;2023-06-10T05:47:39;100192.78;;;23.42;61.72
2339;BME280;1180;51.438;6.978;2023-06-10T05:50:06;100206.97;;;23.47;60.96
2339;BME280;1180;51.438;6.978;2023-06-10T05:52:35;100203.19;;;23.50;61.41
2339;BME280;1180;51.438;6.978;2023-06-10T05:55:02;100202.66;;;23.55;61.22
2339;BME280;1180;51.438;6.978;2023-06-10T05:57:28;100203.38;;;23.63;60.57
2339;BME280;1180;51.438;6.978;2023-06-10T05:59:53;100205.13;;;23.71;60.25
2339;BME280;1180;51.438;6.978;2023-06-10T06:02:19;100205.91;;;23.57;58.83
2339;BME280;1180;51.438;6.978;2023-06-10T06:04:44;100206.56;;;23.59;59.66
2339;BME280;1180;51.438;6.978;2023-06-10T06:07:10;100208.63;;;23.63;57.86
2339;BME280;1180;51.438;6.978;2023-06-10T06:09:36;100213.44;;;23.75;59.06
2339;BME280;1180;51.438;6.978;2023-06-10T06:12:02;100212.34;;;23.69;57.16
2339;BME280;1180;51.438;6.978;2023-06-10T06:14:31;100210.84;;;23.51;57.86
2339;BME280;1180;51.438;6.978;2023-06-10T06:16:57;100216.28;;;23.50;58.01
2339;BME280;1180;51.438;6.978;2023-06-10T06:19:23;100201.66;;;23.56;57.54
2339;BME280;1180;51.438;6.978;2023-06-10T06:21:48;100204.78;;;23.36;56.75
2339;BME280;1180;51.438;6.978;2023-06-10T06:24:16;100202.94;;;23.36;57.12
2339;BME280;1180;51.438;6.978;2023-06-10T06:26:42;100197.63;;;23.06;57.73
2339;BME280;1180;51.438;6.978;2023-06-10T06:29:07;100206.00;;;23.25;58.50
2339;BME280;1180;51.438;6.978;2023-06-10T06:31:33;100205.94;;;23.33;57.03
2339;BME280;1180;51.438;6.978;2023-06-10T06:33:58;100207.34;;;23.59;56.53
2339;BME280;1180;51.438;6.978;2023-06-10T06:36:24;100216.47;;;23.63;56.26
2339;BME280;1180;51.438;6.978;2023-06-10T06:38:50;100212.44;;;23.76;56.21
2339;BME280;1180;51.438;6.978;2023-06-10T06:41:15;100214.72;;;23.94;56.68
2339;BME280;1180;51.438;6.978;2023-06-10T06:43:41;100216.13;;;24.05;55.89
2339;BME280;1180;51.438;6.978;2023-06-10T06:46:08;100212.03;;;24.02;54.70
2339;BME280;1180;51.438;6.978;2023-06-10T06:48:34;100217.88;;;23.89;55.38
2339;BME280;1180;51.438;6.978;2023-06-10T06:50:59;100222.66;;;23.86;55.81
2339;BME280;1180;51.438;6.978;2023-06-10T06:53:25;100222.31;;;23.89;55.60
2339;BME280;1180;51.438;6.978;2023-06-10T06:55:51;100221.00;;;24.08;54.81
2339;BME280;1180;51.438;6.978;2023-06-10T06:58:17;100219.00;;;24.10;55.56
2339;BME280;1180;51.438;6.978;2023-06-10T07:00:42;100217.91;;;24.19;54.66
2339;BME280;1180;51.438;6.978;2023-06-10T07:03:07;100220.44;;;24.28;54.32
2339;BME280;1180;51.438;6.978;2023-06-10T07:05:33;100212.81;;;24.33;53.15
2339;BME280;1180;51.438;6.978;2023-06-10T07:07:59;100219.91;;;24.17;54.10
2339;BME280;1180;51.438;6.978;2023-06-10T07:10:26;100224.16;;;24.03;53.63
2339;BME280;1180;51.438;6.978;2023-06-10T07:12:52;100229.19;;;23.90;53.52
2339;BME280;1180;51.438;6.978;2023-06-10T07:15:18;100229.38;;;24.03;54.64
2339;BME280;1180;51.438;6.978;2023-06-10T07:17:44;100227.13;;;24.15;53.17
2339;BME280;1180;51.438;6.978;2023-06-10T07:20:10;100228.50;;;24.26;53.15
2339;BME280;1180;51.438;6.978;2023-06-10T07:22:36;100227.22;;;24.22;53.21
2339;BME280;1180;51.438;6.978;2023-06-10T07:25:01;100225.84;;;24.56;52.98
2339;BME280;1180;51.438;6.978;2023-06-10T07:27:27;100229.09;;;24.43;52.43
2339;BME280;1180;51.438;6.978;2023-06-10T07:29:52;100232.75;;;24.64;53.72
2339;BME280;1180;51.438;6.978;2023-06-10T07:32:19;100229.50;;;24.62;53.15
2339;BME280;1180;51.438;6.978;2023-06-10T07:34:47;100225.72;;;24.79;53.25
2339;BME280;1180;51.438;6.978;2023-06-10T07:37:13;100216.94;;;24.72;52.55
2339;BME280;1180;51.438;6.978;2023-06-10T07:39:39;100215.09;;;24.73;53.49
2339;BME280;1180;51.438;6.978;2023-06-10T07:42:05;100212.41;;;25.03;53.38
2339;BME280;1180;51.438;6.978;2023-06-10T07:44:31;100217.84;;;25.23;52.00
2339;BME280;1180;51.438;6.978;2023-06-10T07:46:57;100218.41;;;25.18;52.14
2339;BME280;1180;51.438;6.978;2023-06-10T07:49:23;100213.28;;;25.10;52.60
2339;BME280;1180;51.438;6.978;2023-06-10T07:51:50;100211.28;;;25.34;52.21
2339;BME280;1180;51.438;6.978;2023-06-10T07:54:16;100214.34;;;25.37;51.33
2339;BME280;1180;51.438;6.978;2023-06-10T07:56:43;100214.84;;;25.48;51.35
2339;BME280;1180;51.438;6.978;2023-06-10T07:59:09;100215.03;;;25.46;50.73
2339;BME280;1180;51.438;6.978;2023-06-10T08:01:34;100218.00;;;25.43;52.04
2339;BME280;1180;51.438;6.978;2023-06-10T08:04:01;100221.22;;;25.38;51.65
2339;BME280;1180;51.438;6.978;2023-06-10T08:06:26;100215.38;;;25.65;52.63
2339;BME280;1180;51.438;6.978;2023-06-10T08:08:52;100220.19;;;25.61;51.35
2339;BME280;1180;51.438;6.978;2023-06-10T08:11:18;100226.88;;;25.42;51.14
2339;BME280;1180;51.438;6.978;2023-06-10T08:13:44;100227.25;;;25.39;51.20
2339;BME280;1180;51.438;6.978;2023-06-10T08:16:09;100226.22;;;25.12;51.52
2339;BME280;1180;51.438;6.978;2023-06-10T08:18:35;100228.16;;;25.03;52.13
2339;BME280;1180;51.438;6.978;2023-06-10T08:21:00;100228.28;;;25.16;52.43
2339;BME280;1180;51.438;6.978;2023-06-10T08:23:26;100226.94;;;25.20;53.15
2339;BME280;1180;51.438;6.978;2023-06-10T08:25:52;100232.19;;;25.20;51.94
2339;BME280;1180;51.438;6.978;2023-06-10T08:28:19;100229.03;;;25.32;51.18
2339;BME280;1180;51.438;6.978;2023-06-10T08:30:45;100239.19;;;25.63;50.83
2339;BME280;1180;51.438;6.978;2023-06-10T08:33:11;100235.66;;;25.49;50.76
2339;BME280;1180;51.438;6.978;2023-06-10T08:35:36;100239.31;;;25.77;49.99
2339;BME280;1180;51.438;6.978;2023-06-10T08:38:02;100235.09;;;25.83;51.22
2339;BME280;1180;51.438;6.978;2023-06-10T08:40:28;100241.47;;;26.02;51.89
2339;BME280;1180;51.438;6.978;2023-06-10T08:43:17;100244.97;;;26.09;51.13
2339;BME280;1180;51.438;6.978;2023-06-10T08:45:48;100232.34;;;25.98;50.51
2339;BME280;1180;51.438;6.978;2023-06-10T08:48:16;100236.78;;;26.26;51.19
2339;BME280;1180;51.438;6.978;2023-06-10T08:50:43;100234.44;;;26.51;51.19
2339;BME280;1180;51.438;6.978;2023-06-10T08:53:11;100236.06;;;26.45;50.58
2339;BME280;1180;51.438;6.978;2023-06-10T08:55:42;100238.81;;;26.30;49.82
2339;BME280;1180;51.438;6.978;2023-06-10T08:58:07;100241.25;;;26.25;50.48
2339;BME280;1180;51.438;6.978;2023-06-10T09:00:34;100237.00;;;26.31;50.28
2339;BME280;1180;51.438;6.978;2023-06-10T09:03:01;100236.03;;;26.38;49.90
2339;BME280;1180;51.438;6.978;2023-06-10T09:05:28;100224.84;;;26.23;49.93
2339;BME280;1180;51.438;6.978;2023-06-10T09:07:58;100232.13;;;26.28;51.07
2339;BME280;1180;51.438;6.978;2023-06-10T09:10:24;100232.44;;;26.53;50.10
2339;BME280;1180;51.438;6.978;2023-06-10T09:12:50;100222.41;;;26.84;50.14
2339;BME280;1180;51.438;6.978;2023-06-10T09:15:18;100221.66;;;26.96;49.04
2339;BME280;1180;51.438;6.978;2023-06-10T09:17:44;100224.06;;;26.91;49.46
2339;BME280;1180;51.438;6.978;2023-06-10T09:20:10;100224.09;;;27.12;48.98
2339;BME280;1180;51.438;6.978;2023-06-10T09:22:36;100223.09;;;27.13;48.86
2339;BME280;1180;51.438;6.978;2023-06-10T09:25:07;100226.13;;;27.23;48.97
2339;BME280;1180;51.438;6.978;2023-06-10T09:27:54;100215.00;;;27.55;49.28
2339;BME280;1180;51.438;6.978;2023-06-10T09:30:32;100222.28;;;27.39;47.56
2339;BME280;1180;51.438;6.978;2023-06-10T09:33:00;100214.69;;;26.82;49.15
2339;BME280;1180;51.438;6.978;2023-06-10T09:35:27;100222.84;;;26.87;49.37
2339;BME280;1180;51.438;6.978;2023-06-10T09:37:54;100225.69;;;26.99;49.29
2339;BME280;1180;51.438;6.978;2023-06-10T09:40:20;100221.25;;;27.13;48.86
2339;BME280;1180;51.438;6.978;2023-06-10T09:42:46;100215.78;;;27.28;47.05
2339;BME280;1180;51.438;6.978;2023-06-10T09:45:19;100223.28;;;27.38;46.86
2339;BME280;1180;51.438;6.978;2023-06-10T09:47:46;100223.28;;;27.45;46.75
2339;BME280;1180;51.438;6.978;2023-06-10T09:50:12;100221.06;;;27.55;45.97
2339;BME280;1180;51.438;6.978;2023-06-10T09:52:38;100219.19;;;27.82;47.09
2339;BME280;1180;51.438;6.978;2023-06-10T09:55:07;100218.03;;;27.72;46.20
2339;BME280;1180;51.438;6.978;2023-06-10T09:57:37;100221.41;;;27.92;47.05
2339;BME280;1180;51.438;6.978;2023-06-10T10:00:09;100220.56;;;28.19;45.97
2339;BME280;1180;51.438;6.978;2023-06-10T10:02:49;100215.88;;;28.14;45.42
2339;BME280;1180;51.438;6.978;2023-06-10T10:05:17;100219.13;;;28.23;46.31
2339;BME280;1180;51.438;6.978;2023-06-10T10:07:43;100210.72;;;28.39;45.76
2339;BME280;1180;51.438;6.978;2023-06-10T10:10:10;100213.06;;;28.61;44.55
2339;BME280;1180;51.438;6.978;2023-06-10T10:12:38;100221.00;;;28.54;46.09
2339;BME280;1180;51.438;6.978;2023-06-10T10:15:09;100216.88;;;28.65;44.86
2339;BME280;1180;51.438;6.978;2023-06-10T10:18:14;100212.09;;;28.49;44.71
2339;BME280;1180;51.438;6.978;2023-06-10T10:20:47;100216.91;;;28.06;45.41
2339;BME280;1180;51.438;6.978;2023-06-10T10:23:18;100219.34;;;28.08;45.11
2339;BME280;1180;51.438;6.978;2023-06-10T10:25:52;100214.91;;;28.02;45.67
2339;BME280;1180;51.438;6.978;2023-06-10T10:28:21;100211.97;;;28.37;45.83
2339;BME280;1180;51.438;6.978;2023-06-10T10:30:53;100218.03;;;28.44;44.37
2339;BME280;1180;51.438;6.978;2023-06-10T10:33:22;100212.06;;;28.56;44.22
2339;BME280;1180;51.438;6.978;2023-06-10T10:35:53;100211.88;;;28.50;44.09
2339;BME280;1180;51.438;6.978;2023-06-10T10:38:19;100205.84;;;28.82;44.04
2339;BME280;1180;51.438;6.978;2023-06-10T10:40:46;100201.22;;;29.03;44.29
2339;BME280;1180;51.438;6.978;2023-06-10T10:43:13;100206.75;;;29.01;43.27
2339;BME280;1180;51.438;6.978;2023-06-10T10:45:46;100199.88;;;28.93;44.19
2339;BME280;1180;51.438;6.978;2023-06-10T10:48:12;100197.56;;;29.04;44.15
2339;BME280;1180;51.438;6.978;2023-06-10T10:50:39;100200.63;;;29.26;42.37
2339;BME280;1180;51.438;6.978;2023-06-10T10:53:06;100197.69;;;29.41;42.96
2339;BME280;1180;51.438;6.978;2023-06-10T10:55:32;100197.41;;;29.24;41.83
2339;BME280;1180;51.438;6.978;2023-06-10T10:57:59;100204.03;;;29.08;41.59
2339;BME280;1180;51.438;6.978;2023-06-10T11:00:29;100189.75;;;29.16;42.58
2339;BME280;1180;51.438;6.978;2023-06-10T11:03:03;100190.72;;;29.47;42.02
2339;BME280;1180;51.438;6.978;2023-06-10T11:05:42;100189.44;;;29.75;40.42
2339;BME280;1180;51.438;6.978;2023-06-10T11:08:10;100181.28;;;29.95;39.97
2339;BME280;1180;51.438;6.978;2023-06-10T11:10:38;100186.66;;;30.07;40.68
2339;BME280;1180;51.438;6.978;2023-06-10T11:13:15;100180.19;;;30.03;40.42
2339;BME280;1180;51.438;6.978;2023-06-10T11:15:46;100171.28;;;29.97;40.63
2339;BME280;1180;51.438;6.978;2023-06-10T11:18:27;100172.66;;;30.00;39.30
2339;BME280;1180;51.438;6.978;2023-06-10T11:21:02;100171.72;;;29.94;39.44
2339;BME280;1180;51.438;6.978;2023-06-10T11:26:18;100168.84;;;30.14;38.35
2339;BME280;1180;51.438;6.978;2023-06-10T11:31:26;100165.47;;;29.88;38.62
2339;BME280;1180;51.438;6.978;2023-06-10T11:33:57;100164.81;;;30.11;38.77
2339;BME280;1180;51.438;6.978;2023-06-10T11:36:24;100164.00;;;30.41;39.65
2339;BME280;1180;51.438;6.978;2023-06-10T11:38:56;100161.34;;;30.41;38.80
2339;BME280;1180;51.438;6.978;2023-06-10T11:41:28;100167.34;;;30.37;38.26
2339;BME280;1180;51.438;6.978;2023-06-10T11:44:07;100164.06;;;30.23;38.76
2339;BME280;1180;51.438;6.978;2023-06-10T11:46:33;100158.84;;;30.16;38.94
2339;BME280;1180;51.438;6.978;2023-06-10T11:49:00;100160.78;;;30.39;39.04
2339;BME280;1180;51.438;6.978;2023-06-10T11:51:38;100160.78;;;30.70;35.95
2339;BME280;1180;51.438;6.978;2023-06-10T11:54:04;100155.88;;;30.55;37.34
2339;BME280;1180;51.438;6.978;2023-06-10T11:56:32;100149.88;;;30.60;37.15
2339;BME280;1180;51.438;6.978;2023-06-10T11:59:05;100156.91;;;30.54;37.61
2339;BME280;1180;51.438;6.978;2023-06-10T12:01:37;100148.09;;;30.60;37.82
2339;BME280;1180;51.438;6.978;2023-06-10T12:04:03;100149.34;;;30.27;36.24
2339;BME280;1180;51.438;6.978;2023-06-10T12:06:52;100159.56;;;30.23;37.29
2339;BME280;1180;51.438;6.978;2023-06-10T12:09:29;100152.69;;;30.34;37.97
2339;BME280;1180;51.438;6.978;2023-06-10T12:11:58;100150.13;;;30.58;37.35
2339;BME280;1180;51.438;6.978;2023-06-10T12:14:49;100147.47;;;30.58;38.21
2339;BME280;1180;51.438;6.978;2023-06-10T12:17:15;100142.72;;;30.91;38.19
2339;BME280;1180;51.438;6.978;2023-06-10T12:19:41;100140.19;;;30.84;36.77
2339;BME280;1180;51.438;6.978;2023-06-10T12:22:07;100140.56;;;31.23;37.82
2339;BME280;1180;51.438;6.978;2023-06-10T12:24:34;100139.13;;;31.09;36.59
2339;BME280;1180;51.438;6.978;2023-06-10T12:27:11;100126.72;;;31.09;36.88
2339;BME280;1180;51.438;6.978;2023-06-10T12:29:37;100127.75;;;31.08;36.25
2339;BME280;1180;51.438;6.978;2023-06-10T12:32:04;100136.94;;;30.94;36.48
2339;BME280;1180;51.438;6.978;2023-06-10T12:34:39;100123.69;;;30.82;36.12
2339;BME280;1180;51.438;6.978;2023-06-10T12:37:07;100123.25;;;30.43;36.52
2339;BME280;1180;51.438;6.978;2023-06-10T12:39:39;100125.66;;;30.87;37.79
2339;BME280;1180;51.438;6.978;2023-06-10T12:42:05;100133.50;;;31.29;37.40
2339;BME280;1180;51.438;6.978;2023-06-10T12:44:38;100126.91;;;31.67;36.68
2339;BME280;1180;51.438;6.978;2023-06-10T12:47:08;100121.06;;;31.30;35.99
2339;BME280;1180;51.438;6.978;2023-06-10T12:49:36;100118.66;;;31.28;36.47
2339;BME280;1180;51.438;6.978;2023-06-10T12:52:02;100116.56;;;31.18;36.34
2339;BME280;1180;51.438;6.978;2023-06-10T12:54:27;100128.09;;;31.00;35.89
2339;BME280;1180;51.438;6.978;2023-06-10T12:56:53;100119.56;;;31.10;36.54
2339;BME280;1180;51.438;6.978;2023-06-10T12:59:19;100116.34;;;31.20;37.34
2339;BME280;1180;51.438;6.978;2023-06-10T13:01:53;100126.38;;;31.41;36.72
2339;BME280;1180;51.438;6.978;2023-06-10T13:04:19;100123.72;;;31.30;37.16
2339;BME280;1180;51.438;6.978;2023-06-10T13:06:46;100120.81;;;31.43;37.00
2339;BME280;1180;51.438;6.978;2023-06-10T13:09:13;100125.38;;;31.83;37.23
2339;BME280;1180;51.438;6.978;2023-06-10T13:11:39;100118.56;;;32.17;36.30
2339;BME280;1180;51.438;6.978;2023-06-10T13:14:05;100123.44;;;32.08;35.22
2339;BME280;1180;51.438;6.978;2023-06-10T13:16:32;100117.66;;;32.28;36.09
2339;BME280;1180;51.438;6.978;2023-06-10T13:18:58;100114.00;;;32.00;35.59
2339;BME280;1180;51.438;6.978;2023-06-10T13:21:24;100116.72;;;31.64;36.62
2339;BME280;1180;51.438;6.978;2023-06-10T13:23:51;100118.25;;;31.60;35.77